createdAt,value
2017-10-19T00:01:46.360Z,99.90
2017-10-19T00:04:16.082Z,99.90
2017-10-19T00:06:45.823Z,99.90
2017-10-19T00:09:14.769Z,99.90
2017-10-19T00:11:43.873Z,99.90
2017-10-19T00:14:13.588Z,99.90
2017-10-19T00:16:43.327Z,99.90
2017-10-19T00:19:12.676Z,99.90
2017-10-19T00:21:41.681Z,99.90
2017-10-19T00:24:11.423Z,99.90
2017-10-19T00:26:40.406Z,99.90
2017-10-19T00:29:09.379Z,99.90
2017-10-19T00:31:38.336Z,99.90
2017-10-19T00:34:07.289Z,99.90
2017-10-19T00:36:36.380Z,99.90
2017-10-19T00:39:05.724Z,99.90
2017-10-19T00:41:34.708Z,99.90
2017-10-19T00:44:03.815Z,99.90
2017-10-19T00:46:32.832Z,99.90
2017-10-19T00:49:01.927Z,99.90
2017-10-19T00:51:31.660Z,99.90
2017-10-19T00:54:00.656Z,99.90
2017-10-19T00:56:29.637Z,99.90
2017-10-19T00:58:58.591Z,99.90
2017-10-19T01:01:27.558Z,99.90
2017-10-19T01:03:56.521Z,99.90
2017-10-19T01:06:25.537Z,99.90
2017-10-19T01:08:54.504Z,99.90
2017-10-19T01:11:23.473Z,99.90
2017-10-19T01:13:52.886Z,99.90
2017-10-19T01:16:22.596Z,99.90
2017-10-19T01:18:51.674Z,99.90
2017-10-19T01:21:20.624Z,99.90
2017-10-19T01:23:49.604Z,99.90
2017-10-19T01:26:18.599Z,99.90
2017-10-19T01:28:47.564Z,99.90
2017-10-19T01:31:16.632Z,99.90
2017-10-19T01:33:45.600Z,99.90
2017-10-19T01:36:14.593Z,99.90
2017-10-19T01:38:43.548Z,99.90
2017-10-19T01:41:12.535Z,99.90
2017-10-19T01:43:41.504Z,99.90
2017-10-19T01:46:10.483Z,99.90
2017-10-19T01:48:40.238Z,99.90
2017-10-19T01:51:09.210Z,99.90
2017-10-19T01:53:38.147Z,99.90
2017-10-19T01:56:07.124Z,99.90
2017-10-19T01:58:36.079Z,99.90
2017-10-19T02:01:05.448Z,99.90
2017-10-19T02:03:34.786Z,99.90
2017-10-19T02:06:03.750Z,99.90
2017-10-19T02:08:33.449Z,99.90
2017-10-19T02:11:03.177Z,99.90
2017-10-19T02:13:32.530Z,99.90
2017-10-19T02:16:01.560Z,99.90
2017-10-19T02:18:31.257Z,99.90
2017-10-19T02:21:00.992Z,99.90
2017-10-19T02:23:30.354Z,99.90
2017-10-19T02:25:59.319Z,99.90
2017-10-19T02:28:28.285Z,99.90
2017-10-19T02:30:57.215Z,99.90
2017-10-19T02:33:26.178Z,99.90
2017-10-19T02:38:31.908Z,99.90
2017-10-19T02:41:01.655Z,99.90
2017-10-19T02:43:30.605Z,99.90
2017-10-19T02:46:00.337Z,99.90
2017-10-19T02:48:29.303Z,99.90
2017-10-19T02:50:59.021Z,99.90
2017-10-19T02:53:28.746Z,99.90
2017-10-19T02:55:57.680Z,99.90
2017-10-19T02:58:26.643Z,99.90
2017-10-19T03:00:56.005Z,99.90
2017-10-19T03:03:25.368Z,99.90
2017-10-19T03:05:54.718Z,99.90
2017-10-19T03:08:23.676Z,99.90
2017-10-19T03:10:52.618Z,99.90
2017-10-19T03:13:21.552Z,99.90
2017-10-19T03:15:50.493Z,99.90
2017-10-19T03:18:19.477Z,99.90
2017-10-19T03:20:48.437Z,99.90
2017-10-19T03:23:18.506Z,99.90
2017-10-19T03:25:47.457Z,99.90
2017-10-19T03:28:17.222Z,99.90
2017-10-19T03:30:46.185Z,99.90
2017-10-19T03:33:15.126Z,99.90
2017-10-19T03:35:44.507Z,99.90
2017-10-19T03:38:13.444Z,99.90
2017-10-19T03:40:42.411Z,99.90
2017-10-19T03:43:11.356Z,99.90
2017-10-19T03:45:40.333Z,99.90
2017-10-19T03:48:09.296Z,99.90
2017-10-19T03:50:38.296Z,99.90
2017-10-19T03:53:18.892Z,99.90
2017-10-19T03:55:47.860Z,99.90
2017-10-19T03:58:17.233Z,99.90
2017-10-19T04:00:46.203Z,99.90
2017-10-19T04:03:15.169Z,99.90
2017-10-19T04:05:44.562Z,99.90
2017-10-19T04:08:13.565Z,99.90
2017-10-19T04:10:42.699Z,99.90
2017-10-19T04:13:12.461Z,99.90
2017-10-19T04:15:41.430Z,99.90
2017-10-19T04:18:11.144Z,99.90
2017-10-19T04:20:40.117Z,99.90
2017-10-19T04:23:09.474Z,99.90
2017-10-19T04:25:38.449Z,99.90
2017-10-19T04:28:07.424Z,99.90
2017-10-19T04:30:36.383Z,99.90
2017-10-19T04:33:05.347Z,99.90
2017-10-19T04:35:34.303Z,99.90
2017-10-19T04:38:03.284Z,99.90
2017-10-19T04:40:32.644Z,99.90
2017-10-19T04:43:01.615Z,99.90
2017-10-19T04:45:30.730Z,99.90
2017-10-19T04:48:00.109Z,99.90
2017-10-19T04:50:29.061Z,99.90
2017-10-19T04:52:58.475Z,99.90
2017-10-19T04:55:27.429Z,99.90
2017-10-19T04:57:57.161Z,99.90
2017-10-19T05:00:26.910Z,99.90
2017-10-19T05:02:55.870Z,99.90
2017-10-19T05:05:25.610Z,99.90
2017-10-19T05:07:55.323Z,99.90
2017-10-19T05:10:24.782Z,99.90
2017-10-19T05:12:53.705Z,99.90
2017-10-19T05:15:23.060Z,99.90
2017-10-19T05:17:52.010Z,99.90
2017-10-19T05:20:20.988Z,99.90
2017-10-19T05:22:50.328Z,99.90
2017-10-19T05:25:19.281Z,99.90
2017-10-19T05:27:49.840Z,99.90
2017-10-19T05:30:18.814Z,99.90
2017-10-19T05:32:48.532Z,99.90
2017-10-19T05:35:17.488Z,99.90
2017-10-19T05:37:46.454Z,99.90
2017-10-19T05:40:15.412Z,99.90
2017-10-19T05:42:44.389Z,99.90
2017-10-19T05:45:13.352Z,99.90
2017-10-19T05:47:42.320Z,99.90
2017-10-19T05:50:11.290Z,99.90
2017-10-19T05:52:40.225Z,99.90
2017-10-19T05:55:09.576Z,99.90
2017-10-19T05:57:38.552Z,99.90
2017-10-19T06:00:07.558Z,99.90
2017-10-19T06:02:36.512Z,99.90
2017-10-19T06:05:05.497Z,99.90
2017-10-19T06:07:34.445Z,99.90
2017-10-19T06:10:04.176Z,99.90
2017-10-19T06:12:34.580Z,99.90
2017-10-19T06:15:03.598Z,99.90
2017-10-19T06:17:34.131Z,99.90
2017-10-19T06:20:03.937Z,99.90
2017-10-19T06:22:32.938Z,99.90
2017-10-19T06:25:02.378Z,99.90
2017-10-19T06:27:32.320Z,99.90
2017-10-19T06:30:01.995Z,99.90
2017-10-19T06:32:31.976Z,99.90
2017-10-19T06:35:01.432Z,99.90
2017-10-19T06:37:31.703Z,99.90
2017-10-19T06:40:01.524Z,99.90
2017-10-19T06:42:30.665Z,99.90
2017-10-19T06:44:59.900Z,99.90
2017-10-19T06:47:29.374Z,99.90
2017-10-19T06:49:59.590Z,99.90
2017-10-19T06:52:28.714Z,99.90
2017-10-19T06:54:57.725Z,99.90
2017-10-19T06:57:26.690Z,99.90
2017-10-19T06:59:56.756Z,99.90
2017-10-19T07:02:25.728Z,99.90
2017-10-19T07:04:56.963Z,99.90
2017-10-19T07:07:27.375Z,99.90
2017-10-19T07:09:56.846Z,99.90
2017-10-19T07:12:25.892Z,99.90
2017-10-19T07:14:55.818Z,99.90
2017-10-19T07:17:24.967Z,99.90
2017-10-19T07:19:56.749Z,99.90
2017-10-19T07:22:25.707Z,99.90
2017-10-19T07:24:54.711Z,99.90
2017-10-19T07:27:24.665Z,99.90
2017-10-19T07:29:55.450Z,99.90
2017-10-19T07:32:26.431Z,99.90
2017-10-19T07:34:55.519Z,99.90
2017-10-19T07:37:25.361Z,99.90
2017-10-19T07:39:54.484Z,99.90
2017-10-19T07:42:24.153Z,99.90
2017-10-19T07:44:53.098Z,99.90
2017-10-19T07:47:22.064Z,99.90
2017-10-19T07:49:51.046Z,99.90
2017-10-19T07:52:20.019Z,99.90
2017-10-19T07:54:49.719Z,99.90
2017-10-19T07:57:18.713Z,99.90
2017-10-19T07:59:47.662Z,99.90
2017-10-19T08:02:17.431Z,99.90
2017-10-19T08:04:46.389Z,99.90
2017-10-19T08:07:16.238Z,99.90
2017-10-19T08:09:45.226Z,99.90
2017-10-19T08:12:14.198Z,99.90
2017-10-19T08:14:43.140Z,99.90
2017-10-19T08:17:12.113Z,99.90
2017-10-19T08:19:41.069Z,99.90
2017-10-19T08:22:10.038Z,99.90
2017-10-19T08:24:39.738Z,99.90
2017-10-19T08:27:09.730Z,99.90
2017-10-19T08:29:38.677Z,99.90
2017-10-19T08:32:07.748Z,99.90
2017-10-19T08:34:36.669Z,99.90
2017-10-19T08:37:05.646Z,99.90
2017-10-19T08:39:34.981Z,99.90
2017-10-19T08:42:04.720Z,99.90
2017-10-19T08:44:34.424Z,99.90
2017-10-19T08:47:03.463Z,99.90
2017-10-19T08:49:32.418Z,99.90
2017-10-19T08:52:02.778Z,99.90
2017-10-19T08:54:31.723Z,99.90
2017-10-19T08:57:00.683Z,99.90
2017-10-19T08:59:29.659Z,99.90
2017-10-19T09:01:58.599Z,99.90
2017-10-19T09:04:27.557Z,99.90
2017-10-19T09:06:56.508Z,99.90
2017-10-19T09:09:25.464Z,99.90
2017-10-19T09:11:54.457Z,99.90
2017-10-19T09:14:23.372Z,99.90
2017-10-19T09:16:53.103Z,99.90
2017-10-19T09:19:22.056Z,99.90
2017-10-19T09:21:51.032Z,99.90
2017-10-19T09:24:19.984Z,99.90
2017-10-19T09:26:48.921Z,99.90
2017-10-19T09:29:17.890Z,99.90
2017-10-19T09:31:47.624Z,99.90
2017-10-19T09:34:16.637Z,99.90
2017-10-19T09:36:46.010Z,99.90
2017-10-19T09:39:14.939Z,99.90
2017-10-19T09:41:43.913Z,99.90
2017-10-19T09:44:12.879Z,99.90
2017-10-19T09:46:42.255Z,99.90
2017-10-19T09:49:11.216Z,99.90
2017-10-19T09:51:40.299Z,99.90
2017-10-19T09:54:09.238Z,99.90
2017-10-19T09:56:38.282Z,99.90
2017-10-19T09:59:07.282Z,99.90
2017-10-19T10:01:37.005Z,99.90
2017-10-19T10:04:05.995Z,99.90
2017-10-19T10:06:35.682Z,99.90
2017-10-19T10:09:05.457Z,99.90
2017-10-19T10:11:34.432Z,99.90
2017-10-19T10:14:03.409Z,99.90
2017-10-19T10:16:32.360Z,99.90
2017-10-19T10:19:01.341Z,99.90
2017-10-19T10:21:30.288Z,99.90
2017-10-19T10:23:59.262Z,99.90
2017-10-19T10:26:28.207Z,99.90
2017-10-19T10:28:57.163Z,99.90
2017-10-19T10:31:26.141Z,99.90
2017-10-19T10:33:55.106Z,99.90
2017-10-19T10:36:24.850Z,99.90
2017-10-19T10:38:53.792Z,99.90
2017-10-19T10:41:22.777Z,99.90
2017-10-19T10:43:51.735Z,99.90
2017-10-19T10:46:20.702Z,99.90
2017-10-19T10:48:49.873Z,99.90
2017-10-19T10:51:19.585Z,99.90
2017-10-19T10:53:49.312Z,99.90
2017-10-19T10:56:18.272Z,99.90
2017-10-19T10:58:47.223Z,99.90
2017-10-19T11:01:16.938Z,99.90
2017-10-19T11:03:46.687Z,99.90
2017-10-19T11:06:15.644Z,99.90
2017-10-19T11:08:44.599Z,99.90
2017-10-19T11:11:13.561Z,99.90
2017-10-19T11:13:42.518Z,99.90
2017-10-19T11:16:11.485Z,99.90
2017-10-19T11:18:40.451Z,99.90
2017-10-19T11:21:10.150Z,99.90
2017-10-19T11:23:39.878Z,99.90
2017-10-19T11:26:08.833Z,99.90
2017-10-19T11:28:37.801Z,99.90
2017-10-19T11:31:06.758Z,99.20
2017-10-19T11:33:35.729Z,98.80
2017-10-19T11:36:05.482Z,98.50
2017-10-19T11:38:35.574Z,98.70
2017-10-19T11:41:05.282Z,97.70
2017-10-19T11:43:34.249Z,98.40
2017-10-19T11:46:03.949Z,98.20
2017-10-19T11:48:32.930Z,97.50
2017-10-19T11:51:01.917Z,97.90
2017-10-19T11:53:30.866Z,97.40
2017-10-19T11:55:59.845Z,97.50
2017-10-19T11:58:28.824Z,95.30
2017-10-19T12:00:58.545Z,95.50
2017-10-19T12:03:27.513Z,94.60
2017-10-19T12:05:57.219Z,95.50
2017-10-19T12:08:26.199Z,95.50
2017-10-19T12:10:55.142Z,95.70
2017-10-19T12:13:24.137Z,95.00
2017-10-19T12:15:53.077Z,94.90
2017-10-19T12:18:22.043Z,94.60
2017-10-19T12:20:51.082Z,94.40
2017-10-19T12:23:20.096Z,93.20
2017-10-19T12:25:49.026Z,92.40
2017-10-19T12:28:17.984Z,91.40
2017-10-19T12:30:46.950Z,91.10
2017-10-19T12:33:16.760Z,91.50
2017-10-19T12:35:45.704Z,91.50
2017-10-19T12:38:14.681Z,91.50
2017-10-19T12:40:43.616Z,91.70
2017-10-19T12:43:12.580Z,92.20
2017-10-19T12:45:42.413Z,92.60
2017-10-19T12:48:11.360Z,91.80
2017-10-19T12:50:40.321Z,92.80
2017-10-19T12:53:10.043Z,93.40
2017-10-19T12:55:38.974Z,93.40
2017-10-19T12:58:07.931Z,93.10
2017-10-19T13:00:39.058Z,93.80
2017-10-19T13:03:08.792Z,94.00
2017-10-19T13:05:37.885Z,94.30
2017-10-19T13:08:06.851Z,94.50
2017-10-19T13:10:36.586Z,94.30
2017-10-19T13:13:05.534Z,93.70
2017-10-19T13:15:35.272Z,95.10
2017-10-19T13:18:04.228Z,95.50
2017-10-19T13:20:33.217Z,95.10
2017-10-19T13:23:02.276Z,94.10
2017-10-19T13:25:31.245Z,94.00
2017-10-19T13:28:00.218Z,93.60
2017-10-19T13:30:29.176Z,94.10
2017-10-19T13:32:58.182Z,93.40
2017-10-19T13:35:27.138Z,92.80
2017-10-19T13:37:56.099Z,93.10
2017-10-19T13:40:25.087Z,92.50
2017-10-19T13:42:54.794Z,90.90
2017-10-19T13:45:24.531Z,91.00
2017-10-19T13:47:53.475Z,91.00
2017-10-19T13:50:23.191Z,88.10
2017-10-19T13:52:52.961Z,86.90
2017-10-19T13:55:21.935Z,87.60
2017-10-19T13:57:50.891Z,87.50
2017-10-19T14:00:20.653Z,87.70
2017-10-19T14:02:49.593Z,87.70
2017-10-19T14:05:19.311Z,86.50
2017-10-19T14:07:48.251Z,86.40
2017-10-19T14:10:17.249Z,86.10
2017-10-19T14:12:46.186Z,87.00
2017-10-19T14:15:15.163Z,86.60
2017-10-19T14:17:44.910Z,90.20
2017-10-19T14:20:13.864Z,90.50
2017-10-19T14:22:43.677Z,89.50
2017-10-19T14:25:12.753Z,89.30
2017-10-19T14:27:41.708Z,86.20
2017-10-19T14:30:10.670Z,87.00
2017-10-19T14:32:40.462Z,85.60
2017-10-19T14:35:09.405Z,84.10
2017-10-19T14:37:38.336Z,85.10
2017-10-19T14:40:08.266Z,82.70
2017-10-19T14:42:37.292Z,82.60
2017-10-19T14:45:06.342Z,80.70
2017-10-19T14:47:35.278Z,82.70
2017-10-19T14:50:04.252Z,80.60
2017-10-19T14:52:33.215Z,80.60
2017-10-19T14:55:02.958Z,84.30
2017-10-19T14:57:31.900Z,84.50
2017-10-19T15:00:00.855Z,88.20
2017-10-19T15:02:30.228Z,91.20
2017-10-19T15:04:59.609Z,92.40
2017-10-19T15:07:28.555Z,93.60
2017-10-19T15:09:59.493Z,94.80
2017-10-19T15:12:29.336Z,95.70
2017-10-19T15:14:58.698Z,96.50
2017-10-19T15:17:29.058Z,97.00
2017-10-19T15:19:58.194Z,98.10
2017-10-19T15:22:27.622Z,98.40
2017-10-19T15:24:56.692Z,99.00
2017-10-19T15:27:25.738Z,99.30
2017-10-19T15:29:54.802Z,99.70
2017-10-19T15:32:23.861Z,99.90
2017-10-19T15:34:54.364Z,99.90
2017-10-19T15:37:24.953Z,99.90
2017-10-19T15:39:53.961Z,99.90
2017-10-19T15:42:24.639Z,99.90
2017-10-19T15:44:53.701Z,99.90
2017-10-19T15:47:23.604Z,99.90
2017-10-19T15:50:00.502Z,99.90
2017-10-19T15:52:30.271Z,99.90
2017-10-19T15:54:59.354Z,99.90
2017-10-19T15:57:29.698Z,99.90
2017-10-19T15:59:59.329Z,99.90
2017-10-19T16:02:29.104Z,99.90
2017-10-19T16:04:58.919Z,99.90
2017-10-19T16:07:29.903Z,99.90
2017-10-19T16:09:59.592Z,99.90
2017-10-19T16:12:31.237Z,99.90
2017-10-19T16:15:01.692Z,99.90
2017-10-19T16:17:31.082Z,99.90
2017-10-19T16:20:00.031Z,99.90
2017-10-19T16:22:29.442Z,99.90
2017-10-19T16:24:58.863Z,99.90
2017-10-19T16:27:28.657Z,99.90
2017-10-19T16:29:59.404Z,99.90
2017-10-19T16:32:29.159Z,99.90
2017-10-19T16:34:58.831Z,99.90
2017-10-19T16:37:27.813Z,99.90
2017-10-19T16:39:56.841Z,99.90
2017-10-19T16:42:26.584Z,99.90
2017-10-19T16:44:55.623Z,99.90
2017-10-19T16:47:25.377Z,99.90
2017-10-19T16:49:54.350Z,99.90
2017-10-19T16:52:24.125Z,99.90
2017-10-19T16:54:53.058Z,99.90
2017-10-19T16:57:22.793Z,99.90
2017-10-19T16:59:52.508Z,99.90
2017-10-19T17:02:21.471Z,99.90
2017-10-19T17:04:50.414Z,99.90
2017-10-19T17:07:19.804Z,99.90
2017-10-19T17:09:49.547Z,99.90
2017-10-19T17:12:18.934Z,99.90
2017-10-19T17:14:48.662Z,99.90
2017-10-19T17:17:18.059Z,99.90
2017-10-19T17:19:47.012Z,99.90
2017-10-19T17:22:15.976Z,99.90
2017-10-19T17:24:44.944Z,99.90
2017-10-19T17:27:14.316Z,99.90
2017-10-19T17:29:43.260Z,99.90
2017-10-19T17:32:12.224Z,99.90
2017-10-19T17:34:41.958Z,99.90
2017-10-19T17:37:10.921Z,99.90
2017-10-19T17:39:39.848Z,99.90
2017-10-19T17:42:08.817Z,99.90
2017-10-19T17:44:38.547Z,99.90
2017-10-19T17:47:08.584Z,99.90
2017-10-19T17:49:37.548Z,99.90
2017-10-19T17:52:07.301Z,99.90
2017-10-19T17:54:36.280Z,99.90
2017-10-19T17:57:05.237Z,99.90
2017-10-19T17:59:34.586Z,99.90
2017-10-19T18:02:03.536Z,99.90
2017-10-19T18:04:32.538Z,99.90
2017-10-19T18:07:01.523Z,99.90
2017-10-19T18:09:30.509Z,99.90
2017-10-19T18:11:59.468Z,99.90
2017-10-19T18:14:28.450Z,99.90
2017-10-19T18:16:57.794Z,99.90
2017-10-19T18:19:27.553Z,99.90
2017-10-19T18:21:57.292Z,99.90
2017-10-19T18:24:27.063Z,99.90
2017-10-19T18:26:56.817Z,99.90
2017-10-19T18:29:26.740Z,99.90
2017-10-19T18:31:56.552Z,99.90
2017-10-19T18:34:26.290Z,99.90
2017-10-19T18:36:55.327Z,99.90
2017-10-19T18:39:24.715Z,99.90
2017-10-19T18:41:53.704Z,99.90
2017-10-19T18:44:22.701Z,99.90
2017-10-19T18:46:51.701Z,99.90
2017-10-19T18:49:21.222Z,99.90
2017-10-19T18:51:50.606Z,99.90
2017-10-19T18:54:19.645Z,99.90
2017-10-19T18:56:48.609Z,99.90
2017-10-19T18:59:17.637Z,99.90
2017-10-19T19:01:46.643Z,99.90
2017-10-19T19:04:15.635Z,99.90
2017-10-19T19:06:44.650Z,99.90
2017-10-19T19:09:13.651Z,99.90
2017-10-19T19:11:42.604Z,99.90
2017-10-19T19:14:11.620Z,99.90
2017-10-19T19:16:40.570Z,99.90
2017-10-19T19:19:09.586Z,99.90
2017-10-19T19:21:38.572Z,99.90
2017-10-19T19:24:07.576Z,99.90
2017-10-19T19:26:36.538Z,99.90
2017-10-19T19:29:06.296Z,99.90
2017-10-19T19:31:35.673Z,99.90
2017-10-19T19:34:04.650Z,99.90
2017-10-19T19:36:33.821Z,99.90
2017-10-19T19:39:03.539Z,99.90
2017-10-19T19:41:34.309Z,99.90
2017-10-19T19:44:04.058Z,99.90
2017-10-19T19:46:33.490Z,99.90
2017-10-19T19:49:02.655Z,99.90
2017-10-19T19:51:31.645Z,99.90
2017-10-19T19:54:00.703Z,99.90
2017-10-19T19:56:29.675Z,99.90
2017-10-19T19:58:58.757Z,99.90
2017-10-19T20:01:27.740Z,99.90
2017-10-19T20:03:57.567Z,99.90
2017-10-19T20:06:26.527Z,99.90
2017-10-19T20:08:56.585Z,99.90
2017-10-19T20:11:26.073Z,99.90
2017-10-19T20:13:55.100Z,99.90
2017-10-19T20:16:24.874Z,99.90
2017-10-19T20:18:56.641Z,99.90
2017-10-19T20:21:25.977Z,99.90
2017-10-19T20:23:54.949Z,99.90
2017-10-19T20:26:23.922Z,99.90
2017-10-19T20:28:52.877Z,99.90
2017-10-19T20:31:23.419Z,99.90
2017-10-19T20:33:53.227Z,99.90
2017-10-19T20:36:22.157Z,99.90
2017-10-19T20:38:51.155Z,99.90
2017-10-19T20:41:20.547Z,99.90
2017-10-19T20:43:49.903Z,99.90
2017-10-19T20:46:18.861Z,99.90
2017-10-19T20:48:48.600Z,99.90
2017-10-19T20:51:19.794Z,99.90
2017-10-19T20:53:49.553Z,99.90
2017-10-19T20:56:19.271Z,99.90
2017-10-19T20:58:48.684Z,99.90
2017-10-19T21:01:18.403Z,99.90
2017-10-19T21:03:47.378Z,99.90
2017-10-19T21:06:16.706Z,99.90
2017-10-19T21:08:45.682Z,99.90
2017-10-19T21:11:14.642Z,99.90
2017-10-19T21:13:43.610Z,99.90
2017-10-19T21:16:12.552Z,99.90
2017-10-19T21:18:41.567Z,99.90
2017-10-19T21:21:11.295Z,99.90
2017-10-19T21:23:40.708Z,99.90
2017-10-19T21:26:09.638Z,99.90
2017-10-19T21:28:39.361Z,99.90
2017-10-19T21:31:08.312Z,99.90
2017-10-19T21:33:37.833Z,99.90
2017-10-19T21:36:07.567Z,99.90
2017-10-19T21:38:36.524Z,99.90
2017-10-19T21:41:05.490Z,99.90
2017-10-19T21:43:34.735Z,99.90
2017-10-19T21:46:04.470Z,99.90
2017-10-19T21:48:33.426Z,99.90
2017-10-19T21:51:03.130Z,99.90
2017-10-19T21:53:32.108Z,99.90
2017-10-19T21:56:01.441Z,99.90
2017-10-19T21:58:30.414Z,99.90
2017-10-19T22:00:59.349Z,99.90
2017-10-19T22:03:28.370Z,99.90
2017-10-19T22:05:57.304Z,99.90
2017-10-19T22:08:26.686Z,99.90
2017-10-19T22:10:55.628Z,99.90
2017-10-19T22:13:24.588Z,99.90
2017-10-19T22:15:53.546Z,99.90
2017-10-19T22:18:22.499Z,99.90
2017-10-19T22:20:51.447Z,99.90
2017-10-19T22:23:20.436Z,99.90
2017-10-19T22:25:49.379Z,99.90
2017-10-19T22:28:19.451Z,99.90
2017-10-19T22:30:49.164Z,99.90
2017-10-19T22:33:18.496Z,99.90
2017-10-19T22:35:47.466Z,99.90
2017-10-19T22:38:16.495Z,99.90
2017-10-19T22:40:45.453Z,99.90
2017-10-19T22:43:14.550Z,99.90
2017-10-19T22:45:44.254Z,99.90
2017-10-19T22:48:13.580Z,99.90
2017-10-19T22:50:42.633Z,99.90
2017-10-19T22:53:12.325Z,99.90
2017-10-19T22:55:41.289Z,99.90
2017-10-19T22:58:10.232Z,99.90
2017-10-19T23:00:39.957Z,99.90
2017-10-19T23:03:09.666Z,99.90
2017-10-19T23:05:38.675Z,99.90
2017-10-19T23:08:08.424Z,99.90
2017-10-19T23:10:37.397Z,99.90
2017-10-19T23:13:06.359Z,99.90
2017-10-19T23:15:35.268Z,99.90
2017-10-19T23:18:04.628Z,99.90
2017-10-19T23:20:33.601Z,99.90
2017-10-19T23:23:02.529Z,99.90
2017-10-19T23:25:31.500Z,99.90
2017-10-19T23:28:00.441Z,99.90
2017-10-19T23:30:29.407Z,99.90
2017-10-19T23:32:58.363Z,99.90
2017-10-19T23:35:28.125Z,99.90
2017-10-19T23:37:57.476Z,99.90
2017-10-19T23:40:26.853Z,99.90
2017-10-19T23:42:55.797Z,99.90
2017-10-19T23:45:25.520Z,99.90
2017-10-19T23:47:55.230Z,99.90
2017-10-19T23:50:24.782Z,99.90
2017-10-19T23:52:54.118Z,99.90
2017-10-19T23:55:23.473Z,99.90
2017-10-19T23:57:52.473Z,99.90
